メインページ
METAR-TAF:

METAR-TAF

空港 :

ジェネラル・エドワード・ローレンス・ローガン国際空港

ボストン, マサチューセッツ州, アメリカ合衆国

緯度: 42-21-38N, 経度: 071-00-38W, 海抜: 6m

現時点の気象観測

当レポートは46分前の17:54(UTC)に作成
の風 8kt
気温 16°C
湿度 82%
気圧 1023 hPa
視程: 16.1km
高度800ftの雲はほとんどない
高度4000ftの雲はほとんどない
高度25000ftの雲はほとんどない

METAR: KBOS 261754Z 08008KT 10SM FEW008 FEW040 FEW250 16/13 A3020 RMK A02 SLP226 T01560128 10167 20111 58007

時間: 14:40 (18:40 UTC)

予報

当レポートは1時間8分前の17:32(UTC)に作成
予報は26日の 18時(UTC)から 27日の 24時(UTC)まで有効
東/南東の風 10kt
視程: 10km
高度5000ftの雲はほとんどない
26日の 2300時(UTC)から
南/南東の風 7kt
視程: 10km
高度25000ftの雲はほとんどない
27日の 0100時(UTC)から
南/南西の風 7kt
視程: 10km
高度25000ftの雲はほとんどない
27日の 0800時(UTC)から
南西の風 7kt
視程: 10km
高度1000ftの雲は散在している
27日の 08時(UTC)から 27日の 12時(UTC)まで一時的に
視程: 9.7km
高度1000ftの千切れ雲あり
27日の 1530時(UTC)から
南西の風 11kt、最大21ktの突風を伴う
視程: 10km
高度25000ftの雲はほとんどない

TAF: KBOS 261732Z 2618/2724 11010KT P6SM FEW050 FM262300 16007KT P6SM FEW250 FM270100 21007KT P6SM FEW250 FM270800 22007KT P6SM SCT010 TEMPO 2708/2712 6SM BR BKN010 FM271530 22011G21KT P6SM FEW250

4,000以上の空港の気象観測と天気予報(METAR報とTAF報)

利用可能な観測所は地図上に黄色い丸と赤い丸で示す。

丸の上にカーソルを重ねると観測所名を参照できる。

次にクリックすると気象観測と天気予報を参照できる。

マップの切り替え:黒色「×」印の緑ボタンをクリックして拡大、「-」印の緑ボタンをクリックして縮小、緑色の三角印をクリックして隣りの地図に切り替え


METAR-TAF: